Time;durP1;ratioP1;P1;durP2;ratioP2;P2;SDS_P1;SDS_P2;PMS_P1;PMS_P2;Temp;Humidity;BMP_temperature;BMP_pressure;BME280_temperature;BME280_humidity;BME280_pressure;Samples;Min_cycle;Max_cycle;Signal;HPM_P1;HPM_P2
2023/01/03 00:00:22;;;;;;;5.60;3.00;;;7.60;99.90;;;7.15;100.00;98811.59;5027498;28;20132;-68
2023/01/03 00:02:50;;;;;;;7.57;3.10;;;7.50;99.90;;;7.06;100.00;98815.13;5028445;28;20054;-68
2023/01/03 00:05:16;;;;;;;4.93;2.75;;;7.50;99.90;;;6.99;100.00;98819.47;5029321;28;20049;-68
2023/01/03 00:07:43;;;;;;;4.45;2.90;;;7.50;99.90;;;7.06;100.00;98826.28;5023108;28;20081;-68
2023/01/03 00:10:10;;;;;;;5.22;2.92;;;7.50;99.90;;;7.03;100.00;98843.56;5023610;28;20444;-68
2023/01/03 00:12:37;;;;;;;8.57;3.17;;;7.60;99.90;;;7.13;100.00;98840.00;5017588;28;20111;-68
2023/01/03 00:15:05;;;;;;;3.30;2.20;;;7.60;99.90;;;7.26;100.00;98841.63;5020351;28;20491;-68
2023/01/03 00:17:32;;;;;;;3.67;2.60;;;7.60;99.90;;;7.21;100.00;98842.53;5019170;28;20060;-67
2023/01/03 00:19:59;;;;;;;6.22;2.25;;;7.70;99.90;;;7.17;100.00;98839.13;5022048;28;20045;-68
2023/01/03 00:22:31;;;;;;;8.02;2.92;;;7.70;99.90;;;7.23;100.00;98845.94;5020737;28;20042;-68
2023/01/03 00:24:58;;;;;;;6.75;3.22;;;7.70;99.90;;;7.26;100.00;98844.19;5015225;28;20081;-68
2023/01/03 00:27:25;;;;;;;7.13;3.10;;;7.70;99.90;;;7.19;100.00;98832.22;5021423;28;20049;-68
2023/01/03 00:29:53;;;;;;;5.50;2.83;;;7.80;99.90;;;7.27;100.00;98839.88;5022582;28;20172;-67
2023/01/03 00:32:21;;;;;;;4.00;2.40;;;7.80;99.90;;;7.30;100.00;98838.16;5025495;28;20053;-67
2023/01/03 00:34:48;;;;;;;7.15;3.22;;;7.80;99.90;;;7.34;100.00;98833.78;5016769;28;20132;-68
2023/01/03 00:37:15;;;;;;;5.72;2.40;;;7.80;99.90;;;7.28;100.00;98823.53;5011213;28;20068;-68
2023/01/03 00:39:42;;;;;;;5.63;3.20;;;7.70;99.90;;;7.15;100.00;98827.09;5009128;28;20049;-67
2023/01/03 00:42:10;;;;;;;9.18;2.97;;;7.80;99.90;;;7.29;100.00;98823.50;5009400;28;20060;-67
2023/01/03 00:44:37;;;;;;;7.28;3.35;;;7.80;99.90;;;7.26;100.00;98823.53;5012037;28;20049;-67
2023/01/03 00:47:04;;;;;;;4.13;2.78;;;7.80;99.90;;;7.23;100.00;98830.44;5010519;28;20065;-67
2023/01/03 00:49:31;;;;;;;5.40;3.20;;;7.80;99.90;;;7.23;100.00;98828.75;5011637;28;20041;-67
2023/01/03 00:51:58;;;;;;;6.78;3.35;;;7.80;99.90;;;7.50;100.00;98816.41;5016810;28;20050;-65
2023/01/03 00:54:25;;;;;;;5.95;3.33;;;8.00;99.90;;;7.40;100.00;98822.56;5020646;28;20147;-65
2023/01/03 00:56:52;;;;;;;4.80;2.70;;;7.80;99.90;;;7.51;100.00;98818.13;5018438;28;20128;-65
2023/01/03 00:59:21;;;;;;;6.53;3.00;;;7.80;99.90;;;7.23;100.00;98818.41;5040370;28;20147;-67
2023/01/03 01:01:52;;;;;;;5.05;3.30;;;7.80;99.90;;;7.34;100.00;98828.63;4995167;28;20561;-65
2023/01/03 01:04:26;;;;;;;6.38;3.58;;;7.80;99.90;;;7.30;100.00;98821.78;4997926;28;20157;-67
2023/01/03 01:06:56;;;;;;;6.13;3.38;;;8.00;99.90;;;7.20;100.00;98818.41;5017688;28;20444;-66
2023/01/03 01:09:30;;;;;;;5.13;3.00;;;7.90;99.90;;;7.48;100.00;98816.44;5017251;28;20071;-65
2023/01/03 01:11:58;;;;;;;7.40;2.67;;;7.80;99.90;;;7.52;100.00;98814.66;5020564;28;20045;-66
2023/01/03 01:14:28;;;;;;;4.38;2.97;;;7.80;99.90;;;7.29;100.00;98815.75;5019056;28;20109;-66
2023/01/03 01:16:59;;;;;;;6.30;2.67;;;7.80;99.90;;;7.23;100.00;98822.69;5014825;28;20507;-65
2023/01/03 01:19:41;;;;;;;7.97;3.85;;;7.80;99.90;;;7.30;100.00;98811.47;5015012;28;20080;-66
2023/01/03 01:22:10;;;;;;;4.95;3.00;;;7.80;99.90;;;7.23;100.00;98825.28;5018189;28;20111;-68
2023/01/03 01:24:37;;;;;;;5.93;3.22;;;7.80;99.90;;;7.13;100.00;98820.19;5015390;28;20046;-68
2023/01/03 01:27:04;;;;;;;6.72;3.50;;;7.80;99.90;;;7.25;100.00;98823.53;5014729;28;20101;-68
2023/01/03 01:29:31;;;;;;;8.95;3.90;;;7.80;99.90;;;7.25;100.00;98818.38;5015354;28;20655;-66
2023/01/03 01:31:58;;;;;;;6.65;3.08;;;7.80;99.90;;;7.23;100.00;98815.84;5016801;28;20052;-68
2023/01/03 01:34:25;;;;;;;7.95;3.25;;;7.80;99.90;;;7.26;100.00;98823.53;5019767;28;20053;-67
2023/01/03 01:36:52;;;;;;;9.32;3.70;;;7.80;99.90;;;7.39;100.00;98823.41;5016820;28;20050;-66
2023/01/03 01:39:23;;;;;;;4.60;2.35;;;7.80;99.90;;;7.37;100.00;98832.91;5017869;28;20058;-68
2023/01/03 01:45:03;;;;;;;5.05;2.65;;;7.80;99.90;;;7.46;100.00;98823.34;5016449;28;20045;-66
2023/01/03 01:47:56;;;;;;;5.03;2.80;;;7.70;99.90;;;7.35;100.00;98824.34;5024078;28;20511;-67
2023/01/03 01:50:40;;;;;;;5.30;2.25;;;7.70;99.90;;;7.30;100.00;98832.13;5028559;28;20056;-67
2023/01/03 01:53:32;;;;;;;7.90;3.33;;;7.80;99.90;;;7.17;100.00;98833.94;5018522;28;20064;-67
2023/01/03 01:56:16;;;;;;;8.13;3.70;;;7.70;99.90;;;7.27;100.00;98845.91;5012881;28;20423;-67
2023/01/03 01:58:47;;;;;;;5.60;3.30;;;7.70;99.90;;;7.21;100.00;98842.53;5015114;28;20518;-68
2023/01/03 02:01:18;;;;;;;5.55;3.03;;;7.80;99.90;;;7.23;100.00;98849.41;5012772;28;20144;-67
2023/01/03 02:03:55;;;;;;;5.45;2.83;;;7.70;99.90;;;7.19;100.00;98849.44;5014703;28;20084;-67
2023/01/03 02:06:23;;;;;;;5.97;2.72;;;7.80;99.90;;;7.28;100.00;98849.38;5018805;28;20045;-67
2023/01/03 02:08:50;;;;;;;5.47;2.88;;;7.80;99.90;;;7.39;100.00;98837.22;5019501;28;20772;-67
2023/01/03 02:11:26;;;;;;;6.97;2.70;;;7.80;99.90;;;7.24;100.00;98845.09;5018565;28;20060;-67
2023/01/03 02:14:17;;;;;;;7.13;3.38;;;7.80;99.90;;;7.17;100.00;98835.69;5015672;28;20061;-67
2023/01/03 02:17:10;;;;;;;7.32;3.00;;;7.80;99.90;;;7.08;100.00;98839.19;5017647;28;20045;-67
2023/01/03 02:20:14;;;;;;;4.28;3.10;;;7.80;99.90;;;7.03;100.00;98836.66;5021459;28;20046;-67
2023/01/03 02:23:20;;;;;;;9.70;3.45;;;7.80;99.90;;;7.16;100.00;98826.22;5018535;28;20042;-67
2023/01/03 02:26:24;;;;;;;8.70;3.60;;;7.70;99.90;;;7.10;100.00;98825.41;5018111;28;20052;-67
2023/01/03 02:29:39;;;;;;;6.85;3.35;;;7.90;99.90;;;6.98;100.00;98827.22;5022812;28;20040;-67
2023/01/03 02:32:44;;;;;;;5.97;2.78;;;7.70;99.90;;;7.09;100.00;98833.16;5022403;28;20045;-67
2023/01/03 02:35:38;;;;;;;7.57;3.33;;;7.70;99.90;;;7.16;100.00;98833.97;5015292;28;20046;-67
2023/01/03 02:38:14;;;;;;;;;;;7.70;99.90;;;7.12;100.00;98841.75;5022199;28;20057;-67
2023/01/03 02:41:07;;;;;;;8.65;3.65;;;7.70;99.90;;;7.13;100.00;98842.59;5023696;28;19926;-67
2023/01/03 02:43:51;;;;;;;9.77;3.22;;;7.70;99.90;;;7.12;100.00;98838.31;5018954;28;20080;-67
2023/01/03 02:46:37;;;;;;;6.70;3.55;;;7.80;99.90;;;7.09;100.00;98838.31;5022284;28;20050;-67
2023/01/03 02:49:13;;;;;;;6.35;3.67;;;7.70;99.90;;;7.07;100.00;98840.94;5022747;28;20048;-67
2023/01/03 02:51:48;;;;;;;6.38;2.72;;;7.70;99.90;;;7.18;100.00;98827.06;5023879;28;20049;-67
2023/01/03 02:54:24;;;;;;;5.18;3.03;;;7.70;99.90;;;7.47;100.00;98824.19;5025665;28;20057;-67
2023/01/03 02:57:02;;;;;;;6.55;2.80;;;7.70;99.90;;;7.35;100.00;98822.59;5025977;28;20548;-67
2023/01/03 02:59:36;;;;;;;7.95;3.65;;;7.70;99.90;;;7.01;100.00;98827.22;5025435;28;20045;-67
2023/01/03 03:02:04;;;;;;;7.07;2.95;;;7.70;99.90;;;7.26;100.00;98831.28;5018105;28;20049;-66
2023/01/03 03:04:34;;;;;;;5.63;2.50;;;7.70;99.90;;;7.22;100.00;98829.59;5025706;28;20075;-66
2023/01/03 03:07:14;;;;;;;6.90;2.70;;;7.60;99.90;;;7.25;100.00;98828.72;5025717;28;20079;-68
2023/01/03 03:15:21;;;;;;;5.78;2.90;;;7.60;99.90;;;7.11;100.00;98855.50;5025146;28;20406;-66
2023/01/03 03:17:54;;;;;;;5.43;3.05;;;7.60;99.90;;;7.17;100.00;98846.88;5016944;28;20053;-66
2023/01/03 03:26:24;;;;;;;7.07;2.70;;;7.60;99.90;;;7.22;100.00;98845.09;5022875;28;20051;-67
2023/01/03 03:28:59;;;;;;;6.93;2.85;;;7.60;99.90;;;7.17;100.00;98840.84;5023820;28;20052;-67
2023/01/03 03:31:38;;;;;;;10.77;3.60;;;7.60;99.90;;;7.04;100.00;98832.34;5020822;28;20049;-68
2023/01/03 03:34:10;;;;;;;10.88;3.58;;;7.60;99.90;;;7.11;100.00;98845.16;5021896;28;20056;-67
2023/01/03 03:37:02;;;;;;;7.43;3.33;;;7.70;99.90;;;7.31;100.00;98836.41;5020086;28;20125;-68
2023/01/03 03:45:40;;;;;;;5.32;2.97;;;7.60;99.90;;;6.88;100.00;98839.34;5018590;28;20041;-68
2023/01/03 03:51:36;;;;;;;6.75;3.08;;;7.60;99.90;;;6.96;100.00;98841.88;5016790;28;20045;-67
2023/01/03 03:54:10;;;;;;;6.05;2.97;;;7.60;99.90;;;7.18;100.00;98842.56;5020020;28;20049;-68
2023/01/03 03:56:39;;;;;;;8.52;3.65;;;7.50;99.90;;;7.31;100.00;98837.25;5011376;28;20053;-67
2023/01/03 03:59:09;;;;;;;10.65;3.40;;;7.50;99.90;;;6.93;100.00;98842.75;5033029;28;20053;-67
2023/01/03 04:01:38;;;;;;;6.55;3.22;;;7.60;99.90;;;6.86;100.00;98847.09;5013470;28;20041;-68
2023/01/03 04:04:15;;;;;;;5.85;3.00;;;7.50;99.90;;;7.09;100.00;98849.53;5012388;28;20192;-67
2023/01/03 04:06:51;;;;;;;7.75;3.22;;;7.60;99.90;;;7.06;100.00;98846.09;5015860;28;20056;-67
2023/01/03 04:09:18;;;;;;;6.97;3.88;;;7.70;99.90;;;7.06;100.00;98840.94;5015180;28;20041;-71
2023/01/03 04:11:45;;;;;;;8.52;3.03;;;7.60;99.90;;;7.02;100.00;98853.00;5017480;28;20144;-68
2023/01/03 04:14:12;;;;;;;5.82;3.42;;;7.60;99.90;;;7.08;100.00;98847.78;5016754;28;20510;-68
2023/01/03 04:16:39;;;;;;;6.45;3.88;;;7.70;99.90;;;7.12;100.00;98844.31;5030377;28;20439;-65
2023/01/03 04:19:07;;;;;;;8.82;3.38;;;7.80;99.90;;;7.16;100.00;98847.75;5016164;28;20558;-66
2023/01/03 04:21:35;;;;;;;9.18;3.47;;;7.70;99.90;;;7.13;100.00;98847.75;5016673;28;20420;-68
2023/01/03 04:24:04;;;;;;;9.75;3.17;;;7.70;99.90;;;7.10;100.00;98840.03;5014486;28;20434;-68
2023/01/03 04:26:31;;;;;;;8.00;3.95;;;7.70;99.90;;;6.91;100.00;98840.19;5015780;28;20424;-68
2023/01/03 04:28:58;;;;;;;5.72;2.75;;;7.70;99.90;;;6.96;100.00;98850.47;5014188;28;20052;-68
2023/01/03 04:31:25;;;;;;;7.10;2.90;;;7.60;99.90;;;7.22;100.00;98850.25;5014233;28;20170;-68
2023/01/03 04:33:52;;;;;;;7.57;3.80;;;7.60;99.90;;;6.91;100.00;98855.69;5012851;28;20049;-67
2023/01/03 04:36:20;;;;;;;5.15;3.28;;;7.70;99.90;;;7.11;100.00;98857.22;5015905;28;20088;-67
2023/01/03 04:38:47;;;;;;;7.60;3.42;;;7.60;99.90;;;7.14;100.00;98857.22;5017612;28;20407;-68
2023/01/03 04:41:14;;;;;;;6.25;3.20;;;7.60;99.90;;;7.07;100.00;98864.16;5015301;28;20510;-68
2023/01/03 04:46:38;;;;;;;9.30;3.20;;;7.70;99.90;;;7.15;100.00;98856.34;5016291;28;20476;-68
2023/01/03 04:49:08;;;;;;;11.57;3.72;;;7.60;99.90;;;7.01;100.00;98850.44;5015201;28;20054;-67
2023/01/03 04:51:35;;;;;;;6.32;2.95;;;7.60;99.90;;;7.33;100.00;98845.00;5017298;28;21820;-68
2023/01/03 04:54:04;;;;;;;7.03;2.60;;;7.60;99.90;;;7.41;100.00;98847.50;5015132;28;20068;-68
2023/01/03 04:56:36;;;;;;;7.70;3.97;;;7.60;99.90;;;7.05;100.00;98847.81;5021988;28;20648;-68
2023/01/03 04:59:04;;;;;;;5.68;3.22;;;7.70;99.90;;;7.25;100.00;98849.38;5015332;28;20087;-68
2023/01/03 05:01:31;;;;;;;12.68;4.07;;;7.70;99.90;;;6.90;100.00;98853.94;5021120;28;20045;-68
2023/01/03 05:04:00;;;;;;;4.75;3.38;;;7.60;99.90;;;6.96;100.00;98862.53;5022668;28;20141;-68
2023/01/03 05:06:28;;;;;;;8.48;3.38;;;7.60;99.90;;;7.06;100.00;98861.59;5021691;28;20392;-68
2023/01/03 05:08:55;;;;;;;10.63;3.88;;;7.50;99.90;;;6.98;100.00;98861.66;5017761;28;20045;-68
2023/01/03 05:11:22;;;;;;;6.38;3.35;;;7.50;99.90;;;6.94;100.00;98867.69;5016910;28;20045;-68
2023/01/03 05:13:49;;;;;;;7.53;3.13;;;7.50;99.90;;;6.89;100.00;98870.31;5017922;28;20180;-68
2023/01/03 05:16:16;;;;;;;5.75;3.13;;;7.50;99.90;;;6.93;100.00;98873.72;5017115;28;20053;-68
2023/01/03 05:18:43;;;;;;;6.45;3.20;;;7.50;99.90;;;7.00;100.00;98885.75;5017653;28;20054;-68
2023/01/03 05:26:54;;;;;;;6.03;3.60;;;7.50;99.90;;;6.81;100.00;98889.28;5014733;28;20075;-67
2023/01/03 05:29:21;;;;;;;5.47;3.30;;;7.40;99.90;;;6.95;100.00;98897.78;5015837;28;20056;-68
2023/01/03 05:31:48;;;;;;;7.55;3.97;;;7.40;99.90;;;6.89;100.00;98890.97;5007117;28;20991;-68
2023/01/03 05:34:15;;;;;;;9.32;4.13;;;7.50;99.90;;;6.98;100.00;98899.50;5012335;28;20667;-68
2023/01/03 05:36:42;;;;;;;7.97;4.28;;;7.40;99.90;;;6.89;100.00;98903.03;5016329;28;20085;-67
2023/01/03 05:39:09;;;;;;;8.95;4.80;;;7.40;99.90;;;6.85;100.00;98897.00;5015910;28;20092;-68
2023/01/03 05:44:22;;;;;;;12.90;4.90;;;7.50;99.90;;;6.74;100.00;98897.94;5010368;28;20071;-68
2023/01/03 05:46:49;;;;;;;7.85;4.22;;;7.30;99.90;;;6.80;100.00;98900.50;5010087;28;20478;-67
2023/01/03 05:49:17;;;;;;;5.13;4.13;;;7.40;99.90;;;6.78;100.00;98895.34;5015523;28;20057;-68
2023/01/03 05:51:44;;;;;;;14.85;5.93;;;7.30;99.90;;;6.84;100.00;98894.44;5014908;28;20713;-67
2023/01/03 05:54:14;;;;;;;9.90;5.63;;;7.30;99.90;;;6.88;100.00;98904.72;5016374;28;20065;-66
2023/01/03 05:56:41;;;;;;;11.02;6.82;;;7.40;99.90;;;6.93;100.00;98903.84;5015582;28;20077;-68
2023/01/03 05:59:09;;;;;;;9.45;5.38;;;7.30;99.90;;;6.97;100.00;98908.97;5012514;28;20073;-68
2023/01/03 06:01:36;;;;;;;7.97;5.15;;;7.40;99.90;;;6.94;100.00;98906.44;5018997;28;20068;-68
2023/01/03 06:04:03;;;;;;;10.80;6.57;;;7.30;99.90;;;6.69;100.00;98910.88;5017929;28;20046;-68
2023/01/03 06:06:30;;;;;;;8.63;5.30;;;7.30;99.90;;;6.55;100.00;98912.69;5013916;28;20045;-68
2023/01/03 06:08:58;;;;;;;11.35;6.57;;;7.30;99.90;;;6.58;100.00;98921.25;5026128;28;20046;-68
2023/01/03 06:11:25;;;;;;;11.32;7.00;;;7.30;99.90;;;6.55;100.00;98925.59;5018442;28;20037;-67
2023/01/03 06:13:52;;;;;;;12.05;7.28;;;7.30;99.90;;;6.80;100.00;98926.31;5019832;28;20061;-68
2023/01/03 06:19:07;;;;;;;9.82;5.60;;;7.20;99.90;;;6.67;100.00;98938.41;5022553;28;20160;-66
2023/01/03 06:21:35;;;;;;;14.93;7.03;;;7.10;99.90;;;6.54;100.00;98935.03;5004634;28;20092;-66
2023/01/03 06:24:02;;;;;;;10.68;6.25;;;7.20;99.90;;;6.66;100.00;98932.41;5025914;28;20061;-66
2023/01/03 06:26:29;;;;;;;10.10;6.53;;;7.10;99.90;;;6.53;100.00;98932.47;5030186;28;20060;-66
2023/01/03 06:28:56;;;;;;;11.75;7.32;;;7.10;99.90;;;6.44;100.00;98934.22;5033114;28;20483;-66
2023/01/03 06:31:23;;;;;;;15.48;6.18;;;7.10;99.90;;;6.53;100.00;98927.31;5009244;28;20322;-67
2023/01/03 06:33:50;;;;;;;13.48;6.28;;;7.00;99.90;;;6.47;100.00;98928.19;5029008;28;20060;-66
2023/01/03 06:36:20;;;;;;;10.05;6.10;;;6.90;99.90;;;6.59;100.00;98928.13;5027921;28;20059;-67
2023/01/03 06:38:47;;;;;;;10.25;6.38;;;6.90;99.90;;;6.46;100.00;98929.91;5026590;28;20076;-67
2023/01/03 06:41:15;;;;;;;14.45;7.10;;;6.90;99.90;;;6.64;100.00;98928.97;5026043;28;20052;-66
2023/01/03 06:43:43;;;;;;;12.70;7.50;;;6.90;99.90;;;6.36;100.00;98928.22;5025686;28;20156;-66
2023/01/03 06:54:36;;;;;;;13.13;8.18;;;6.80;99.90;;;6.19;100.00;98938.59;5025673;28;20053;-66
2023/01/03 06:57:04;;;;;;;13.10;7.63;;;6.80;99.90;;;6.43;100.00;98947.09;5027554;28;20459;-66
2023/01/03 06:59:31;;;;;;;13.40;9.40;;;6.80;99.90;;;6.37;100.00;98953.16;5025530;28;20056;-66
2023/01/03 07:01:58;;;;;;;10.52;6.93;;;6.80;99.90;;;6.45;100.00;98945.38;5039584;28;20522;-66
2023/01/03 07:04:26;;;;;;;12.10;7.20;;;6.90;99.90;;;6.57;100.00;98947.03;5018989;28;20045;-66
2023/01/03 07:06:53;;;;;;;10.68;7.43;;;6.80;99.90;;;6.61;100.00;98943.59;5026600;28;20049;-66
2023/01/03 07:09:20;;;;;;;19.30;9.07;;;7.00;99.90;;;6.21;100.00;98949.78;5024150;28;20053;-67
2023/01/03 07:11:47;;;;;;;10.57;7.75;;;7.00;99.90;;;6.28;100.00;98954.03;5023010;28;20051;-66
2023/01/03 07:14:14;;;;;;;11.10;6.30;;;6.90;99.90;;;6.43;100.00;98950.56;5026927;28;20060;-66
2023/01/03 07:16:44;;;;;;;9.13;6.10;;;6.80;99.90;;;6.23;100.00;98960.09;5029217;28;20136;-66
2023/01/03 07:19:15;;;;;;;9.27;6.35;;;6.90;99.90;;;6.50;100.00;98972.03;5025905;28;20123;-66
2023/01/03 07:21:43;;;;;;;10.05;5.35;;;6.80;99.90;;;6.54;100.00;98965.13;5009087;28;20074;-66
2023/01/03 07:24:13;;;;;;;10.95;6.45;;;6.80;99.90;;;6.39;100.00;98961.75;5024140;28;20546;-67
2023/01/03 07:26:40;;;;;;;10.32;6.45;;;6.90;99.90;;;6.53;100.00;98966.00;5025986;28;20364;-66
2023/01/03 07:29:09;;;;;;;8.23;5.47;;;7.10;99.90;;;6.59;100.00;98965.94;5023949;28;20072;-66
2023/01/03 07:31:39;;;;;;;10.63;5.95;;;7.00;99.90;;;6.39;100.00;98971.22;5022023;28;20045;-66
2023/01/03 07:34:07;;;;;;;10.18;6.47;;;7.00;99.90;;;6.46;100.00;98972.91;5022760;28;20535;-67
2023/01/03 07:36:35;;;;;;;6.82;4.57;;;7.00;99.90;;;6.50;100.00;98974.63;5043059;28;20115;-66
2023/01/03 07:39:02;;;;;;;7.28;4.60;;;6.90;99.90;;;6.61;100.00;98972.81;5021777;28;20075;-70
2023/01/03 07:44:14;;;;;;;8.82;5.10;;;7.00;99.90;;;6.30;100.00;98972.09;5028543;28;20056;-70
2023/01/03 07:46:41;;;;;;;7.15;4.60;;;7.00;99.90;;;6.33;100.00;98971.22;5025539;28;20045;-70
2023/01/03 07:49:08;;;;;;;13.43;4.32;;;7.00;99.90;;;6.41;100.00;98972.03;5028249;28;20168;-71
2023/01/03 07:51:38;;;;;;;10.60;5.07;;;7.10;99.90;;;6.47;100.00;98970.28;5024541;28;20056;-70
2023/01/03 07:54:06;;;;;;;8.60;4.47;;;6.90;99.90;;;6.39;100.00;98968.63;5024419;28;20137;-70
2023/01/03 07:56:34;;;;;;;8.40;4.95;;;6.90;99.90;;;6.19;100.00;98979.84;5025081;28;20103;-70
2023/01/03 07:59:01;;;;;;;11.15;5.05;;;6.90;99.90;;;6.23;100.00;98984.16;5030099;28;20135;-71
2023/01/03 08:01:29;;;;;;;13.25;5.00;;;7.00;99.90;;;6.24;100.00;98985.00;5027903;28;20052;-70
2023/01/03 08:03:56;;;;;;;9.93;6.05;;;7.00;99.90;;;6.36;100.00;98984.09;5022459;28;20080;-70
2023/01/03 08:06:24;;;;;;;9.40;5.05;;;7.00;99.90;;;6.35;100.00;98983.25;5030111;28;20580;-71
2023/01/03 08:14:23;;;;;;;7.15;4.00;;;7.00;99.90;;;6.55;100.00;98967.72;5026498;28;20235;-71
2023/01/03 08:16:53;;;;;;;9.27;3.75;;;7.00;99.90;;;6.28;100.00;98964.34;5027990;28;20156;-71
2023/01/03 08:19:20;;;;;;;14.55;3.83;;;7.00;99.90;;;6.54;100.00;98963.41;5020774;28;20057;-71
2023/01/03 08:21:47;;;;;;;5.47;3.10;;;7.00;99.90;;;6.55;100.00;98969.44;5021182;28;20740;-71
2023/01/03 08:24:14;;;;;;;11.02;3.80;;;7.00;99.90;;;6.34;100.00;98971.22;5024606;28;20096;-71
2023/01/03 08:26:41;;;;;;;10.60;4.43;;;7.00;99.90;;;6.26;100.00;98971.22;5026666;28;20056;-71
2023/01/03 08:29:08;;;;;;;8.98;3.63;;;7.10;99.90;;;6.39;100.00;98978.94;5032877;28;20083;-71
2023/01/03 08:31:41;;;;;;;8.82;3.88;;;7.00;99.90;;;6.41;100.00;98975.50;5031444;28;20045;-71
2023/01/03 08:34:09;;;;;;;;;;;7.00;99.90;;;6.42;100.00;98979.78;5027310;28;20054;-71
2023/01/03 08:36:54;;;;;;;10.93;4.63;;;7.10;99.90;;;6.59;100.00;98986.59;5026460;28;20378;-71
2023/01/03 08:39:26;;;;;;;8.80;5.28;;;7.00;99.90;;;6.41;100.00;98987.50;5023318;28;20057;-71
2023/01/03 08:42:00;;;;;;;9.70;4.20;;;7.10;99.90;;;6.21;100.00;98987.59;5025767;28;20057;-71
2023/01/03 08:44:27;;;;;;;9.82;4.90;;;7.20;99.90;;;6.37;100.00;98991.00;5024633;28;20156;-71
2023/01/03 08:46:57;;;;;;;11.85;5.57;;;7.20;99.90;;;6.38;100.00;99013.31;5024624;28;20060;-71
2023/01/03 08:49:25;;;;;;;14.25;5.18;;;7.30;99.90;;;6.27;100.00;99013.34;5026895;28;20126;-71
2023/01/03 08:51:52;;;;;;;11.68;5.22;;;7.30;99.90;;;6.43;100.00;99020.19;5022584;28;20964;-71
2023/01/03 08:54:19;;;;;;;10.48;6.32;;;7.20;99.90;;;6.45;100.00;99017.59;5026708;28;20132;-71
2023/01/03 08:56:46;;;;;;;11.60;6.07;;;7.20;99.90;;;6.30;100.00;99021.09;5025690;28;20140;-71
2023/01/03 08:59:13;;;;;;;15.68;6.60;;;7.40;99.90;;;6.40;100.00;99027.94;5027400;28;20053;-71
2023/01/03 09:01:40;;;;;;;12.68;5.90;;;7.30;99.90;;;6.66;100.00;99024.41;5025623;28;20045;-71
2023/01/03 09:04:07;;;;;;;16.30;8.50;;;7.20;99.90;;;6.42;100.00;99041.69;5027926;28;20191;-71
2023/01/03 09:06:34;;;;;;;13.05;7.90;;;7.30;99.90;;;6.31;100.00;99034.84;5032613;28;20102;-72
2023/01/03 09:09:06;;;;;;;9.88;6.32;;;7.40;99.90;;;6.56;100.00;99046.81;5025692;28;20065;-72
2023/01/03 09:11:33;;;;;;;15.73;6.72;;;7.30;99.90;;;6.43;100.00;99040.84;5022974;28;20052;-71
2023/01/03 09:14:00;;;;;;;9.48;6.10;;;7.30;99.90;;;6.59;100.00;99036.50;5025815;28;20071;-71
2023/01/03 09:16:27;;;;;;;9.73;6.18;;;7.40;99.90;;;6.51;100.00;99051.13;5025782;28;20066;-71
2023/01/03 09:18:54;;;;;;;12.68;7.35;;;7.30;99.90;;;6.66;100.00;99048.50;5025252;28;20511;-71
2023/01/03 09:21:21;;;;;;;11.57;5.70;;;7.30;99.90;;;6.61;100.00;99057.97;5024457;28;20124;-71
2023/01/03 09:23:49;;;;;;;10.15;6.00;;;7.30;99.90;;;6.58;100.00;99051.97;5022170;28;20060;-71
2023/01/03 09:26:16;;;;;;;11.52;5.40;;;7.50;99.90;;;6.72;100.00;99041.59;5020491;28;20107;-71
2023/01/03 09:28:42;;;;;;;10.23;5.85;;;7.40;99.90;;;6.56;100.00;99040.78;5022815;28;20038;-71
2023/01/03 09:31:09;;;;;;;7.80;4.38;;;7.40;99.90;;;6.36;100.00;99038.25;5025185;28;20048;-71
2023/01/03 09:33:36;;;;;;;9.27;4.70;;;7.40;99.90;;;6.50;100.00;99033.94;5027563;28;20160;-71
2023/01/03 09:36:04;;;;;;;8.77;5.40;;;7.50;99.90;;;6.48;100.00;99031.34;5025695;28;20079;-71
2023/01/03 09:38:31;;;;;;;7.93;5.25;;;7.40;99.90;;;6.63;100.00;99027.84;5024263;28;20053;-71
2023/01/03 09:41:07;;;;;;;11.85;5.20;;;7.40;99.90;;;6.48;100.00;99026.19;5021438;28;20056;-71
2023/01/03 09:43:45;;;;;;;9.20;5.45;;;7.30;99.90;;;6.35;100.00;99034.81;5019106;28;20133;-71
2023/01/03 09:46:20;;;;;;;10.18;5.60;;;7.40;99.90;;;6.52;100.00;99026.19;5024201;28;20574;-71
2023/01/03 09:48:48;;;;;;;10.77;5.57;;;7.40;99.90;;;6.61;100.00;99027.00;5019707;28;20058;-71
2023/01/03 10:06:19;;;;;;;12.05;8.02;;;7.60;99.90;;;6.54;100.00;99033.03;5023936;28;20481;-71
2023/01/03 10:08:55;;;;;;;15.55;8.65;;;7.60;99.90;;;6.76;100.00;99035.56;5023846;28;20115;-71
2023/01/03 10:11:47;;;;;;;15.57;8.75;;;7.60;99.90;;;6.44;100.00;99039.97;5030495;28;20041;-71
2023/01/03 10:14:32;;;;;;;14.75;9.15;;;7.60;99.90;;;6.65;100.00;99044.19;5025703;28;20060;-71
2023/01/03 10:17:44;;;;;;;11.23;7.95;;;7.60;99.90;;;6.63;100.00;99048.50;5028164;28;20458;-71
2023/01/03 10:20:35;;;;;;;15.07;7.97;;;7.60;99.90;;;6.93;100.00;99036.34;5026749;28;20049;-71
2023/01/03 10:23:06;;;;;;;10.27;7.30;;;7.70;99.90;;;6.91;100.00;99038.94;5029051;28;20053;-71
2023/01/03 10:25:35;;;;;;;12.20;8.38;;;7.80;99.90;;;6.80;100.00;99034.69;5029913;28;20049;-71
2023/01/03 10:28:16;;;;;;;11.32;8.00;;;7.90;99.90;;;7.06;100.00;99026.81;5026667;28;20076;-71
2023/01/03 10:31:39;;;;;;;11.80;6.80;;;8.00;99.90;;;7.02;100.00;99028.53;5023942;28;20065;-71
2023/01/03 10:34:06;;;;;;;10.40;5.85;;;7.90;99.90;;;6.79;100.00;99020.91;5019970;28;20104;-71
2023/01/03 10:36:33;;;;;;;8.95;6.03;;;8.00;99.90;;;7.27;100.00;99010.34;5023462;28;20143;-72
2023/01/03 10:39:07;;;;;;;9.55;6.10;;;8.20;99.90;;;7.15;100.00;99010.44;5026634;28;20055;-71
2023/01/03 10:41:46;;;;;;;9.60;4.95;;;8.20;99.90;;;7.11;100.00;98999.25;5026834;28;20057;-71
2023/01/03 10:44:29;;;;;;;8.50;4.50;;;8.20;99.90;;;7.15;100.00;98997.50;5009147;28;20045;-71
2023/01/03 10:47:10;;;;;;;8.48;5.38;;;8.20;99.90;;;7.13;100.00;98990.63;5023578;28;20442;-71
2023/01/03 10:49:36;;;;;;;9.00;5.03;;;8.30;99.90;;;7.22;100.00;98984.53;5023862;28;21771;-71
2023/01/03 10:52:16;;;;;;;9.05;5.35;;;8.40;99.90;;;7.19;100.00;98982.00;5024880;28;20049;-72
2023/01/03 10:54:52;;;;;;;10.80;5.03;;;8.30;99.90;;;7.36;100.00;98986.19;5025033;28;20056;-71
2023/01/03 10:57:58;;;;;;;12.63;5.75;;;8.40;99.90;;;7.44;100.00;98981.84;5023277;28;20092;-71
2023/01/03 11:00:34;;;;;;;9.88;5.25;;;8.40;99.90;;;7.32;100.00;98977.59;5023489;28;20423;-72
2023/01/03 11:03:19;;;;;;;9.38;5.57;;;8.50;99.90;;;7.51;100.00;98981.75;5026602;28;20057;-71
2023/01/03 11:06:07;;;;;;;10.52;6.18;;;8.40;99.90;;;7.38;100.00;98982.72;5017314;28;20430;-71
2023/01/03 11:08:44;;;;;;;9.65;5.55;;;8.60;99.90;;;7.37;100.00;98974.97;5027854;28;20136;-71
2023/01/03 11:11:26;;;;;;;11.75;6.60;;;8.60;99.90;;;7.62;100.00;98978.22;5023439;28;20143;-71
2023/01/03 11:14:20;;;;;;;10.10;6.72;;;8.60;99.90;;;7.64;100.00;98979.06;5028678;28;20060;-72
2023/01/03 11:17:03;;;;;;;11.98;6.88;;;8.80;99.90;;;7.90;100.00;98968.50;5025196;28;20053;-71
2023/01/03 11:19:33;;;;;;;13.18;7.22;;;8.80;99.90;;;7.71;100.00;98968.69;5027497;28;20511;-71
2023/01/03 11:22:40;;;;;;;13.88;6.55;;;8.90;99.90;;;7.97;100.00;98965.84;5024298;28;20072;-71
2023/01/03 11:25:13;;;;;;;10.45;6.47;;;8.90;99.90;;;7.92;100.00;98962.44;5023129;28;20056;-71
2023/01/03 11:28:27;;;;;;;9.48;6.30;;;8.80;99.90;;;8.13;100.00;98951.03;5023976;28;20722;-71
2023/01/03 11:31:24;;;;;;;7.70;5.55;;;8.80;99.90;;;7.61;100.00;98961.88;5021163;28;20081;-71
2023/01/03 11:34:29;;;;;;;12.27;6.57;;;8.80;99.90;;;7.70;100.00;98961.78;5024320;28;20053;-71
2023/01/03 11:37:27;;;;;;;11.40;6.85;;;8.70;99.90;;;7.73;100.00;98963.47;5018384;28;20053;-71
2023/01/03 11:40:02;;;;;;;11.15;6.65;;;8.70;99.90;;;7.66;100.00;98961.81;5022765;28;20077;-71
2023/01/03 11:42:48;;;;;;;11.70;4.82;;;8.60;99.90;;;7.80;100.00;98957.41;5026254;28;20148;-71
2023/01/03 11:45:24;;;;;;;8.00;4.43;;;8.50;99.90;;;7.39;100.00;98965.47;5024006;28;20053;-71
2023/01/03 11:48:02;;;;;;;7.63;3.78;;;8.50;99.90;;;7.51;100.00;98960.25;5039423;28;20057;-71
2023/01/03 11:50:52;;;;;;;9.40;4.10;;;8.40;99.90;;;7.52;100.00;98964.53;5025248;28;20058;-71
2023/01/03 11:54:00;;;;;;;10.25;4.28;;;8.40;99.90;;;7.46;100.00;98965.44;5021497;28;20076;-71
2023/01/03 11:56:36;;;;;;;10.63;4.03;;;8.40;99.90;;;7.50;100.00;98968.84;5017297;28;20108;-71
2023/01/03 11:59:12;;;;;;;8.38;3.83;;;8.40;99.90;;;7.44;100.00;98967.19;5023058;28;20055;-71